Time;durP1;ratioP1;P1;durP2;ratioP2;P2;SDS_P1;SDS_P2;PMS_P1;PMS_P2;Temp;Humidity;BMP_temperature;BMP_pressure;BME280_temperature;BME280_humidity;BME280_pressure;Samples;Min_cycle;Max_cycle;Signal;HPM_P1;HPM_P2
2023/03/29 00:00:48;;;;;;;7.15;3.67;;;5.80;99.90;;;;;;5059107;28;20486;-51
2023/03/29 00:03:14;;;;;;;5.95;3.92;;;5.80;99.90;;;;;;5055720;28;20064;-49
2023/03/29 00:05:40;;;;;;;4.97;3.75;;;5.80;99.90;;;;;;5059226;28;20170;-50
2023/03/29 00:08:07;;;;;;;6.68;4.43;;;5.80;99.90;;;;;;5060037;28;20438;-49
2023/03/29 00:10:33;;;;;;;5.50;3.70;;;5.80;99.90;;;;;;5061552;28;20044;-50
2023/03/29 00:12:59;;;;;;;5.57;4.20;;;5.80;99.90;;;;;;5061718;28;20049;-49
2023/03/29 00:15:25;;;;;;;5.55;4.35;;;5.80;99.90;;;;;;5058680;28;20044;-49
2023/03/29 00:17:51;;;;;;;7.07;4.35;;;5.80;99.90;;;;;;5061799;28;20044;-50
2023/03/29 00:20:17;;;;;;;5.40;4.18;;;5.70;99.90;;;;;;5063533;28;20037;-49
2023/03/29 00:22:45;;;;;;;5.00;3.83;;;5.70;99.90;;;;;;5060563;28;20397;-51
2023/03/29 00:25:11;;;;;;;;;;;5.70;99.90;;;;;;5063536;28;20170;-50
2023/03/29 00:27:37;;;;;;;6.45;4.40;;;5.70;99.90;;;;;;5065992;28;19920;-49
2023/03/29 00:30:05;;;;;;;4.90;3.80;;;5.70;99.90;;;;;;5064718;28;20041;-49
2023/03/29 00:32:31;;;;;;;5.20;4.10;;;5.70;99.90;;;;;;5064531;28;20040;-50
2023/03/29 00:34:59;;;;;;;6.55;4.28;;;5.70;99.90;;;;;;5064329;28;20056;-50
2023/03/29 00:37:28;;;;;;;7.22;4.43;;;5.70;99.90;;;;;;5064334;28;20079;-50
2023/03/29 00:39:54;;;;;;;5.65;4.40;;;5.70;99.90;;;;;;5065952;28;20041;-51
2023/03/29 00:42:20;;;;;;;6.00;4.50;;;5.70;99.90;;;;;;5058996;28;20033;-49
2023/03/29 00:44:58;;;;;;;7.93;4.45;;;5.60;99.90;;;;;;5068702;28;20040;-52
2023/03/29 00:47:38;;;;;;;7.82;4.40;;;5.60;99.90;;;;;;5064422;28;20837;-51
2023/03/29 00:50:12;;;;;;;6.00;4.32;;;5.60;99.90;;;;;;5066371;28;20470;-50
2023/03/29 00:52:40;;;;;;;7.55;3.75;;;5.60;99.90;;;;;;5066812;28;20044;-52
2023/03/29 00:55:14;;;;;;;6.57;4.00;;;5.70;99.90;;;;;;5066104;28;20133;-50
2023/03/29 00:57:45;;;;;;;6.57;4.60;;;5.60;99.90;;;;;;5063512;28;20462;-49
2023/03/29 01:00:15;;;;;;;5.78;4.55;;;5.70;99.90;;;;;;5064590;28;20048;-50
2023/03/29 01:02:42;;;;;;;5.38;4.30;;;5.60;99.90;;;;;;5064170;28;20315;-50
2023/03/29 01:05:18;;;;;;;7.78;4.80;;;5.60;99.90;;;;;;5064738;28;20124;-53
2023/03/29 01:07:59;;;;;;;7.68;4.30;;;5.60;99.90;;;;;;5064921;28;20037;-50
2023/03/29 01:10:33;;;;;;;5.63;4.32;;;5.60;99.90;;;;;;5066767;28;20094;-51
2023/03/29 01:13:30;;;;;;;6.90;4.90;;;5.60;99.90;;;;;;5058968;28;20405;-52
2023/03/29 01:15:57;;;;;;;;;;;5.60;99.90;;;;;;5066461;28;20060;-51
2023/03/29 01:18:23;;;;;;;6.72;5.32;;;5.60;99.90;;;;;;5072965;28;19925;-51
2023/03/29 01:20:49;;;;;;;7.30;5.50;;;5.60;99.90;;;;;;5073735;28;20046;-49
2023/03/29 01:23:44;;;;;;;8.85;6.47;;;5.60;99.90;;;;;;5074165;28;20127;-50
2023/03/29 01:26:15;;;;;;;10.60;6.53;;;5.60;99.90;;;;;;5043485;28;20091;-52
2023/03/29 01:28:50;;;;;;;8.80;6.68;;;5.60;99.90;;;;;;5064338;28;20485;-50
2023/03/29 01:31:25;;;;;;;11.63;6.40;;;5.60;99.90;;;;;;5074003;28;20040;-49
2023/03/29 01:34:00;;;;;;;11.77;7.05;;;5.60;99.90;;;;;;5073337;28;20049;-49
2023/03/29 01:36:37;;;;;;;10.00;6.63;;;5.60;99.90;;;;;;5075375;28;20055;-52
2023/03/29 01:39:05;;;;;;;10.48;6.95;;;5.60;99.90;;;;;;5075533;28;20432;-49
2023/03/29 01:41:55;;;;;;;12.82;6.97;;;5.60;99.90;;;;;;5075676;28;20040;-49
2023/03/29 01:44:48;;;;;;;9.80;7.32;;;5.60;99.90;;;;;;5073352;28;20044;-49
2023/03/29 01:47:34;;;;;;;9.73;7.63;;;5.60;99.90;;;;;;5058051;28;20080;-50
2023/03/29 01:50:12;;;;;;;10.35;8.13;;;5.60;99.90;;;;;;5064832;28;20062;-52
2023/03/29 01:52:55;;;;;;;13.55;8.07;;;5.60;99.90;;;;;;5069732;28;20387;-50
2023/03/29 01:55:26;;;;;;;11.18;8.10;;;5.60;99.90;;;;;;5066979;28;20153;-52
2023/03/29 01:57:55;;;;;;;11.00;9.23;;;5.60;99.90;;;;;;5065168;28;20041;-49
2023/03/29 02:00:26;;;;;;;12.70;9.13;;;5.60;99.90;;;;;;5063438;28;20123;-51
2023/03/29 02:02:54;;;;;;;14.10;9.57;;;5.60;99.90;;;;;;5062796;28;20497;-51
2023/03/29 02:05:22;;;;;;;15.07;9.95;;;5.60;99.90;;;;;;5066700;28;20068;-51
2023/03/29 02:07:49;;;;;;;12.93;9.45;;;5.60;99.90;;;;;;5062570;28;20044;-53
2023/03/29 02:10:16;;;;;;;13.27;10.13;;;5.60;99.90;;;;;;5064069;28;20055;-51
2023/03/29 02:12:42;;;;;;;16.77;10.52;;;5.70;99.90;;;;;;5063290;28;20045;-50
2023/03/29 02:15:18;;;;;;;11.63;9.95;;;5.70;99.90;;;;;;5064566;28;20039;-50
2023/03/29 02:17:45;;;;;;;15.32;10.38;;;5.70;99.90;;;;;;5063178;28;20033;-53
2023/03/29 02:20:21;;;;;;;12.07;9.63;;;5.70;99.90;;;;;;5063447;28;20041;-54
2023/03/29 02:23:07;;;;;;;15.05;11.05;;;5.70;99.90;;;;;;5060680;28;20087;-49
2023/03/29 02:25:33;;;;;;;12.05;10.65;;;5.70;99.90;;;;;;5056521;28;20434;-54
2023/03/29 02:28:00;;;;;;;15.57;11.50;;;5.70;99.90;;;;;;5057181;28;20056;-54
2023/03/29 02:30:54;;;;;;;15.55;11.48;;;5.70;99.90;;;;;;5064080;28;20049;-53
2023/03/29 02:33:44;;;;;;;17.00;11.77;;;5.70;99.90;;;;;;5063860;28;20032;-51
2023/03/29 02:36:32;;;;;;;12.30;10.73;;;5.70;99.90;;;;;;5061551;28;20249;-53
2023/03/29 02:39:01;;;;;;;15.40;11.00;;;5.70;99.90;;;;;;5063738;28;20040;-51
2023/03/29 02:41:27;;;;;;;17.00;11.85;;;5.70;99.90;;;;;;5064149;28;20040;-53
2023/03/29 02:43:55;;;;;;;14.50;11.55;;;5.70;99.90;;;;;;5063523;28;20028;-53
2023/03/29 02:46:21;;;;;;;15.40;11.00;;;5.70;99.90;;;;;;5063188;28;21227;-52
2023/03/29 02:48:50;;;;;;;15.27;11.63;;;5.70;99.90;;;;;;5063955;28;20049;-51
2023/03/29 02:51:26;;;;;;;14.70;11.73;;;5.70;99.90;;;;;;5064701;28;20063;-50
2023/03/29 02:54:18;;;;;;;16.02;10.88;;;5.80;99.90;;;;;;5062177;28;20037;-51
2023/03/29 02:56:53;;;;;;;12.35;11.05;;;5.80;99.90;;;;;;5061362;28;20513;-52
2023/03/29 02:59:18;;;;;;;14.98;10.63;;;5.80;99.90;;;;;;5069807;28;20107;-53
2023/03/29 03:01:44;;;;;;;14.13;11.27;;;5.80;99.90;;;;;;5062304;28;20128;-55
2023/03/29 03:04:11;;;;;;;14.98;11.43;;;5.80;99.90;;;;;;5064251;28;20481;-49
2023/03/29 03:06:40;;;;;;;13.73;11.55;;;5.80;99.90;;;;;;5055665;28;20426;-50
2023/03/29 03:09:06;;;;;;;16.05;11.45;;;5.80;99.90;;;;;;5062939;28;20036;-51
2023/03/29 03:11:32;;;;;;;14.00;11.35;;;5.80;99.90;;;;;;5061356;28;20428;-51
2023/03/29 03:13:58;;;;;;;12.93;11.18;;;5.80;99.90;;;;;;5062739;28;20044;-49
2023/03/29 03:16:24;;;;;;;16.98;11.20;;;5.80;99.90;;;;;;5070580;28;20049;-53
2023/03/29 03:18:51;;;;;;;13.05;10.70;;;5.80;99.90;;;;;;5073122;28;20045;-49
2023/03/29 03:21:19;;;;;;;16.35;10.82;;;5.80;99.90;;;;;;5073037;28;20117;-49
2023/03/29 03:23:46;;;;;;;12.82;10.38;;;5.80;99.90;;;;;;5067228;28;20079;-50
2023/03/29 03:26:12;;;;;;;14.13;10.90;;;5.90;99.90;;;;;;5068889;28;20068;-49
2023/03/29 03:28:38;;;;;;;14.50;11.18;;;5.90;99.90;;;;;;5063758;28;20147;-49
2023/03/29 03:31:05;;;;;;;14.50;10.77;;;5.90;99.90;;;;;;5066891;28;20041;-49
2023/03/29 03:33:30;;;;;;;12.48;10.65;;;5.90;99.90;;;;;;5067830;28;20040;-53
2023/03/29 03:36:01;;;;;;;11.65;10.43;;;5.90;99.90;;;;;;5067713;28;20036;-50
2023/03/29 03:38:28;;;;;;;15.65;11.30;;;5.90;99.90;;;;;;5069295;28;20045;-54
2023/03/29 03:40:58;;;;;;;13.70;11.10;;;5.90;99.90;;;;;;5064279;28;20090;-50
2023/03/29 03:43:24;;;;;;;14.75;11.27;;;5.90;99.90;;;;;;5066679;28;20490;-50
2023/03/29 03:45:49;;;;;;;15.35;10.82;;;5.90;99.90;;;;;;5064053;28;20116;-50
2023/03/29 03:48:16;;;;;;;16.77;10.60;;;5.90;99.90;;;;;;5065149;28;20506;-54
2023/03/29 03:50:53;;;;;;;11.75;10.30;;;5.90;99.90;;;;;;5065081;28;20044;-51
2023/03/29 03:53:19;;;;;;;13.02;10.30;;;5.90;99.90;;;;;;5066070;28;20041;-52
2023/03/29 03:55:48;;;;;;;12.65;10.50;;;5.90;99.90;;;;;;5066512;28;20127;-53
2023/03/29 03:58:16;;;;;;;17.05;11.10;;;5.90;99.90;;;;;;5066964;28;20051;-49
2023/03/29 04:00:41;;;;;;;12.63;11.23;;;6.00;99.90;;;;;;5065858;28;20087;-49
2023/03/29 04:03:07;;;;;;;12.07;10.45;;;6.00;99.90;;;;;;5068306;28;20056;-51
2023/03/29 04:05:37;;;;;;;12.75;11.45;;;5.90;99.90;;;;;;5064431;28;20452;-49
2023/03/29 04:08:05;;;;;;;12.65;10.55;;;5.90;99.90;;;;;;5067918;28;20086;-53
2023/03/29 04:10:31;;;;;;;13.77;11.45;;;6.00;99.90;;;;;;5065757;28;20115;-53
2023/03/29 04:13:01;;;;;;;11.98;9.93;;;5.90;99.90;;;;;;5064568;28;20033;-51
2023/03/29 04:15:37;;;;;;;15.27;11.45;;;5.90;99.90;;;;;;5064435;28;20037;-52
2023/03/29 04:18:03;;;;;;;14.65;11.50;;;6.00;99.90;;;;;;5065312;28;20048;-51
2023/03/29 04:20:29;;;;;;;15.00;11.40;;;6.00;99.90;;;;;;5066530;28;20044;-49
2023/03/29 04:22:55;;;;;;;13.68;10.52;;;5.90;99.90;;;;;;5067348;28;20074;-50
2023/03/29 04:25:21;;;;;;;15.98;10.77;;;6.00;99.90;;;;;;5064067;28;20125;-49
2023/03/29 04:27:50;;;;;;;12.13;10.30;;;6.00;99.90;;;;;;5066817;28;20032;-51
2023/03/29 04:30:16;;;;;;;14.18;10.18;;;5.90;99.90;;;;;;5060140;28;20485;-50
2023/03/29 04:32:41;;;;;;;13.32;11.38;;;5.90;99.90;;;;;;5056482;28;20037;-50
2023/03/29 04:35:08;;;;;;;14.55;10.32;;;5.90;99.90;;;;;;5059338;28;20044;-50
2023/03/29 04:37:34;;;;;;;13.13;11.07;;;5.80;99.90;;;;;;5064708;28;20032;-50
2023/03/29 04:40:00;;;;;;;13.68;11.63;;;5.80;99.90;;;;;;5065582;28;20303;-49
2023/03/29 04:42:26;;;;;;;15.00;11.45;;;5.80;99.90;;;;;;5067601;28;20048;-53
2023/03/29 04:44:52;;;;;;;14.23;10.65;;;5.80;99.90;;;;;;5060025;28;20140;-51
2023/03/29 04:47:18;;;;;;;13.50;10.82;;;5.80;99.90;;;;;;5057098;28;20449;-54
2023/03/29 04:49:44;;;;;;;14.70;10.90;;;5.70;99.90;;;;;;5063264;28;20127;-52
2023/03/29 04:52:10;;;;;;;12.88;10.52;;;5.80;99.90;;;;;;5064867;28;20119;-51
2023/03/29 04:54:36;;;;;;;14.57;10.63;;;5.70;99.90;;;;;;5061269;28;20575;-50
2023/03/29 04:57:04;;;;;;;15.60;11.25;;;5.70;99.90;;;;;;5066197;28;20049;-50
2023/03/29 04:59:29;;;;;;;15.88;12.02;;;5.70;99.90;;;;;;5081061;28;20076;-54
2023/03/29 05:01:55;;;;;;;17.25;11.38;;;5.70;99.90;;;;;;5064905;28;20079;-50
2023/03/29 05:04:20;;;;;;;13.23;11.30;;;5.70;99.90;;;;;;5061689;28;20044;-50
2023/03/29 05:06:46;;;;;;;16.58;11.43;;;5.80;99.90;;;;;;5065015;28;20044;-50
2023/03/29 05:09:12;;;;;;;14.55;11.30;;;5.70;99.90;;;;;;5065634;28;20037;-52
2023/03/29 05:11:37;;;;;;;13.73;10.77;;;5.80;99.90;;;;;;5066290;28;20453;-51
2023/03/29 05:14:06;;;;;;;16.90;11.70;;;5.80;99.90;;;;;;5061652;28;20080;-54
2023/03/29 05:16:36;;;;;;;12.73;11.40;;;5.70;99.90;;;;;;5061058;28;20047;-54
2023/03/29 05:19:02;;;;;;;17.55;11.60;;;5.80;99.90;;;;;;5062613;28;20072;-49
2023/03/29 05:21:28;;;;;;;14.93;11.15;;;5.80;99.90;;;;;;5062866;28;20444;-51
2023/03/29 05:23:54;;;;;;;15.75;11.32;;;5.80;99.90;;;;;;5060270;28;20139;-50
2023/03/29 05:26:21;;;;;;;15.80;11.85;;;5.80;99.90;;;;;;5061275;28;22008;-52
2023/03/29 05:28:50;;;;;;;15.52;11.35;;;5.80;99.90;;;;;;5061253;28;20056;-51
2023/03/29 05:31:16;;;;;;;15.43;11.98;;;5.80;99.90;;;;;;5064452;28;20047;-50
2023/03/29 05:33:42;;;;;;;12.93;11.52;;;5.80;99.90;;;;;;5064375;28;20036;-50
2023/03/29 05:36:13;;;;;;;17.00;11.40;;;5.80;99.90;;;;;;5063994;28;20052;-51
2023/03/29 05:38:40;;;;;;;15.52;11.82;;;5.80;99.90;;;;;;5063573;28;20040;-52
2023/03/29 05:41:07;;;;;;;16.17;11.98;;;5.80;99.90;;;;;;5055953;28;20478;-50
2023/03/29 05:43:33;;;;;;;19.67;12.00;;;5.80;99.90;;;;;;5064270;28;20460;-54
2023/03/29 05:46:00;;;;;;;14.48;11.93;;;5.80;99.90;;;;;;5065226;28;20044;-49
2023/03/29 05:48:26;;;;;;;13.85;11.30;;;5.90;99.90;;;;;;5064554;28;20439;-49
2023/03/29 05:50:53;;;;;;;12.43;10.95;;;5.80;99.90;;;;;;5064425;28;20090;-49
2023/03/29 05:53:21;;;;;;;14.45;11.35;;;5.80;99.90;;;;;;5063589;28;20041;-51
2023/03/29 05:55:47;;;;;;;19.55;11.55;;;5.80;99.90;;;;;;5063265;28;20053;-49
2023/03/29 05:58:14;;;;;;;13.90;10.50;;;5.80;99.90;;;;;;5063975;28;20493;-49
2023/03/29 06:00:40;;;;;;;13.07;10.88;;;5.80;99.90;;;;;;5064721;28;20097;-50
2023/03/29 06:03:12;;;;;;;16.02;10.88;;;5.80;99.90;;;;;;5062308;28;20072;-53
2023/03/29 06:05:39;;;;;;;16.27;11.27;;;5.90;99.90;;;;;;5064723;28;20389;-51
2023/03/29 06:08:07;;;;;;;14.43;11.30;;;5.90;99.90;;;;;;5063682;28;20477;-53
2023/03/29 06:10:35;;;;;;;13.35;10.35;;;5.90;99.90;;;;;;5064961;28;20078;-51
2023/03/29 06:13:01;;;;;;;18.90;11.07;;;5.90;99.90;;;;;;5064312;28;20071;-51
2023/03/29 06:15:26;;;;;;;15.32;10.65;;;5.90;99.90;;;;;;5064804;28;20032;-53
2023/03/29 06:17:52;;;;;;;12.90;10.73;;;6.00;99.90;;;;;;5056172;28;20079;-52
2023/03/29 06:20:18;;;;;;;14.00;11.80;;;6.00;99.90;;;;;;5066567;28;20139;-51
2023/03/29 06:22:45;;;;;;;13.32;10.30;;;6.00;99.90;;;;;;5063955;28;20044;-52
2023/03/29 06:25:11;;;;;;;14.15;11.18;;;6.00;99.90;;;;;;5065993;28;20036;-50
2023/03/29 06:27:37;;;;;;;14.40;11.20;;;6.10;99.90;;;;;;5065879;28;20125;-54
2023/03/29 06:30:05;;;;;;;12.35;10.13;;;6.20;99.90;;;;;;5066283;28;20091;-49
2023/03/29 06:32:33;;;;;;;14.30;11.13;;;6.20;99.90;;;;;;5071134;28;20492;-53
2023/03/29 06:34:58;;;;;;;14.63;10.27;;;6.20;99.90;;;;;;5064819;28;20040;-48
2023/03/29 06:37:24;;;;;;;14.45;9.77;;;6.20;99.90;;;;;;5065643;28;20054;-50
2023/03/29 06:39:51;;;;;;;15.07;9.95;;;6.20;99.90;;;;;;5062915;28;20068;-50
2023/03/29 06:42:21;;;;;;;15.95;10.10;;;6.30;99.90;;;;;;5060904;28;20047;-53
2023/03/29 06:44:48;;;;;;;12.88;10.25;;;6.30;99.90;;;;;;5058663;28;20048;-51
2023/03/29 06:47:15;;;;;;;12.98;9.77;;;6.30;99.90;;;;;;5058567;28;20162;-53
2023/03/29 06:49:41;;;;;;;11.50;8.65;;;6.40;99.90;;;;;;5058696;28;20121;-51
2023/03/29 06:52:07;;;;;;;12.98;9.57;;;;;;;;;;5055915;28;20040;-53
2023/03/29 06:54:33;;;;;;;9.90;8.70;;;6.50;99.90;;;;;;5055927;28;20067;-53
2023/03/29 06:57:00;;;;;;;11.95;9.18;;;6.50;99.90;;;;;;5062147;28;20116;-50
2023/03/29 06:59:25;;;;;;;11.02;9.60;;;6.60;99.90;;;;;;5061029;28;20045;-51
2023/03/29 07:01:52;;;;;;;13.55;9.68;;;6.60;99.90;;;;;;5062974;28;20143;-49
2023/03/29 07:04:19;;;;;;;11.55;8.23;;;6.70;99.90;;;;;;5061563;28;20046;-51
2023/03/29 07:06:47;;;;;;;10.02;8.43;;;6.70;99.90;;;;;;5059960;28;20051;-51
2023/03/29 07:09:18;;;;;;;10.27;8.77;;;6.80;99.90;;;;;;5061179;28;20261;-50
2023/03/29 07:11:44;;;;;;;13.27;8.43;;;6.80;99.90;;;;;;5058104;28;20048;-50
2023/03/29 07:14:10;;;;;;;11.10;8.18;;;6.90;99.90;;;;;;5061638;28;20068;-50
2023/03/29 07:16:36;;;;;;;10.27;7.78;;;6.90;99.90;;;;;;5073061;28;20445;-52
2023/03/29 07:19:02;;;;;;;10.13;7.53;;;;;;;;;;5072749;28;20048;-50
2023/03/29 07:21:29;;;;;;;11.55;8.32;;;6.90;99.90;;;;;;5071919;28;20037;-54
2023/03/29 07:23:57;;;;;;;14.40;8.50;;;7.00;99.90;;;;;;5083061;28;20437;-50
2023/03/29 07:26:23;;;;;;;11.18;7.93;;;7.00;99.90;;;;;;5066210;28;20123;-51
2023/03/29 07:28:48;;;;;;;13.60;8.57;;;7.00;99.90;;;;;;5064401;28;20172;-49
2023/03/29 07:31:14;;;;;;;10.70;7.43;;;7.10;99.90;;;;;;5063147;28;20467;-50
2023/03/29 07:33:40;;;;;;;13.35;8.07;;;7.10;99.90;;;;;;5064330;28;20047;-50
2023/03/29 07:36:06;;;;;;;9.27;7.95;;;7.10;99.90;;;;;;5063225;28;20413;-50
2023/03/29 07:38:32;;;;;;;10.23;7.88;;;7.10;99.90;;;;;;5062784;28;20094;-51
2023/03/29 07:40:58;;;;;;;10.23;7.93;;;7.20;99.90;;;;;;5064495;28;20064;-51
2023/03/29 07:43:23;;;;;;;9.68;7.20;;;7.30;99.90;;;;;;5065117;28;20055;-52
2023/03/29 07:45:51;;;;;;;15.90;7.68;;;7.30;99.90;;;;;;5059409;28;20470;-52
2023/03/29 07:48:17;;;;;;;8.27;7.38;;;7.40;99.90;;;;;;5062428;28;20091;-55
2023/03/29 07:50:44;;;;;;;9.75;7.55;;;7.40;99.90;;;;;;5062741;28;20128;-50
2023/03/29 07:53:10;;;;;;;11.23;7.45;;;7.50;99.90;;;;;;5061753;28;20040;-52
2023/03/29 07:55:36;;;;;;;8.85;7.43;;;7.50;99.90;;;;;;5061840;28;20049;-49
2023/03/29 07:58:03;;;;;;;9.80;7.43;;;7.60;99.90;;;;;;5062362;28;20058;-54
2023/03/29 08:00:29;;;;;;;11.00;6.90;;;7.70;99.90;;;;;;5061157;28;20083;-50
2023/03/29 08:02:54;;;;;;;10.13;7.65;;;7.70;99.90;;;;;;5058967;28;20753;-50
2023/03/29 08:05:21;;;;;;;11.02;7.00;;;7.80;99.90;;;;;;5060165;28;20478;-50
2023/03/29 08:07:48;;;;;;;8.63;7.30;;;7.80;99.90;;;;;;5060246;28;20137;-51
2023/03/29 08:10:16;;;;;;;9.88;7.38;;;7.90;99.90;;;;;;5059078;28;20064;-49
2023/03/29 08:12:42;;;;;;;;;;;7.90;99.90;;;;;;5059974;28;20079;-51
2023/03/29 08:15:08;;;;;;;10.55;6.90;;;7.90;99.90;;;;;;5063136;28;19924;-50
2023/03/29 08:17:35;;;;;;;8.65;7.10;;;8.00;99.90;;;;;;5064467;28;20488;-50
2023/03/29 08:20:01;;;;;;;9.75;7.03;;;8.00;99.90;;;;;;5064138;28;20037;-50
2023/03/29 08:22:27;;;;;;;8.70;7.15;;;8.10;99.90;;;;;;5057317;28;20037;-50
2023/03/29 08:24:53;;;;;;;9.00;6.28;;;8.10;99.90;;;;;;5062993;28;20111;-50
2023/03/29 08:27:19;;;;;;;9.43;6.20;;;8.20;99.90;;;;;;5057490;28;20064;-54
2023/03/29 08:29:45;;;;;;;10.98;6.50;;;8.20;99.90;;;;;;5063124;28;20040;-49
2023/03/29 08:32:11;;;;;;;10.88;6.50;;;8.30;99.90;;;;;;5058265;28;20726;-53
2023/03/29 08:34:37;;;;;;;9.23;6.38;;;8.40;99.90;;;;;;5059312;28;20037;-51
2023/03/29 08:37:03;;;;;;;8.85;6.15;;;8.40;99.90;;;;;;5058225;28;20045;-51
2023/03/29 08:39:30;;;;;;;9.43;6.55;;;8.50;99.90;;;;;;5058978;28;20211;-50
2023/03/29 08:42:06;;;;;;;13.48;6.65;;;8.60;99.90;;;;;;5058892;28;20161;-50
2023/03/29 08:45:01;;;;;;;9.25;6.25;;;8.70;99.90;;;;;;5059341;28;20528;-50
2023/03/29 08:47:42;;;;;;;10.93;6.40;;;8.70;99.90;;;;;;5045392;28;20056;-50
2023/03/29 08:50:09;;;;;;;12.20;6.65;;;8.70;99.90;;;;;;5058908;28;20045;-51
2023/03/29 08:52:38;;;;;;;13.98;6.22;;;8.90;99.90;;;;;;5060342;28;20044;-50
2023/03/29 08:55:34;;;;;;;10.43;6.43;;;9.00;99.90;;;;;;5061160;28;20052;-50
2023/03/29 08:58:06;;;;;;;7.90;6.28;;;9.10;99.90;;;;;;5061178;28;20503;-54
2023/03/29 09:00:35;;;;;;;10.43;6.40;;;;;;;;;;5061556;28;20040;-51
2023/03/29 09:03:05;;;;;;;8.93;6.40;;;9.20;99.90;;;;;;5060697;28;20040;-55
2023/03/29 09:05:40;;;;;;;9.10;6.50;;;9.30;99.90;;;;;;5063789;28;20048;-51
2023/03/29 09:08:16;;;;;;;7.53;6.18;;;9.30;99.90;;;;;;5057412;28;20500;-51
2023/03/29 09:10:46;;;;;;;8.13;6.40;;;9.40;99.90;;;;;;5067528;28;20127;-50
2023/03/29 09:13:37;;;;;;;9.43;6.50;;;9.50;99.90;;;;;;5062439;28;20044;-50
2023/03/29 09:16:10;;;;;;;8.48;6.70;;;9.50;99.90;;;;;;5065633;28;20057;-50
2023/03/29 09:19:05;;;;;;;10.18;6.25;;;9.60;99.90;;;;;;5064417;28;20047;-52
2023/03/29 09:21:56;;;;;;;7.65;6.32;;;9.70;99.90;;;;;;5067210;28;20053;-51
2023/03/29 09:24:36;;;;;;;11.02;6.13;;;9.70;99.90;;;;;;5070207;28;20052;-50
2023/03/29 09:27:17;;;;;;;10.30;6.43;;;9.70;99.90;;;;;;5083937;28;20416;-51
2023/03/29 09:30:03;;;;;;;9.00;6.10;;;9.80;99.90;;;;;;5068892;28;20049;-50
2023/03/29 09:32:53;;;;;;;8.07;6.68;;;9.90;99.90;;;;;;5063426;28;20104;-52
2023/03/29 09:35:28;;;;;;;9.00;6.40;;;10.00;99.90;;;;;;5063483;28;20509;-51
2023/03/29 09:37:55;;;;;;;9.23;6.60;;;10.20;99.90;;;;;;5075320;28;20041;-51
2023/03/29 09:40:30;;;;;;;10.35;6.68;;;10.30;99.90;;;;;;5075675;28;20143;-52
2023/03/29 09:42:57;;;;;;;12.50;6.75;;;10.50;99.90;;;;;;5072190;28;20044;-54
2023/03/29 09:45:23;;;;;;;9.93;7.40;;;10.60;99.90;;;;;;5074775;28;20060;-53
2023/03/29 09:48:25;;;;;;;7.82;6.85;;;10.60;99.90;;;;;;5073873;28;20477;-51
2023/03/29 09:50:51;;;;;;;11.23;7.38;;;10.70;99.90;;;;;;5041218;28;20064;-54
2023/03/29 09:53:18;;;;;;;8.55;7.05;;;10.80;99.90;;;;;;5073779;28;20045;-53
2023/03/29 09:55:47;;;;;;;9.43;7.70;;;10.80;99.90;;;;;;5075411;28;20079;-54
2023/03/29 09:58:15;;;;;;;8.15;6.50;;;10.80;99.90;;;;;;5074892;28;20051;-50
2023/03/29 10:00:41;;;;;;;;;;;10.90;99.90;;;;;;5075774;28;20474;-51
2023/03/29 10:03:07;;;;;;;10.80;7.10;;;11.00;99.90;;;;;;5072690;28;19921;-50
2023/03/29 10:05:36;;;;;;;9.43;7.20;;;11.00;99.90;;;;;;5074738;28;20090;-51
2023/03/29 10:08:11;;;;;;;7.85;7.05;;;;;;;;;;5070301;28;20041;-50
2023/03/29 10:10:36;;;;;;;7.40;6.60;;;11.10;99.90;;;;;;5055070;28;20171;-52
2023/03/29 10:13:05;;;;;;;10.40;7.10;;;11.10;99.90;;;;;;5069386;28;20115;-51
2023/03/29 10:15:31;;;;;;;9.73;7.07;;;11.10;99.90;;;;;;5076266;28;20501;-54
2023/03/29 10:18:11;;;;;;;9.50;7.20;;;11.10;99.90;;;;;;5075132;28;20037;-51
2023/03/29 10:20:39;;;;;;;10.70;7.18;;;11.20;99.90;;;;;;5075468;28;20048;-55
2023/03/29 10:23:07;;;;;;;8.23;6.53;;;11.20;99.90;;;;;;5073811;28;20049;-52
2023/03/29 10:25:39;;;;;;;9.43;7.05;;;11.30;99.90;;;;;;5074744;28;20176;-54
2023/03/29 10:28:15;;;;;;;11.43;7.13;;;11.30;99.90;;;;;;5072772;28;20043;-53
2023/03/29 10:30:41;;;;;;;9.73;6.90;;;11.40;99.90;;;;;;5074365;28;20053;-54
2023/03/29 10:33:16;;;;;;;10.10;6.68;;;11.50;99.90;;;;;;5073383;28;20457;-53
2023/03/29 10:35:42;;;;;;;9.10;6.95;;;11.60;99.90;;;;;;5074486;28;20128;-52
2023/03/29 10:38:13;;;;;;;7.90;7.10;;;11.80;99.90;;;;;;5072910;28;20037;-52
2023/03/29 10:40:43;;;;;;;10.35;6.90;;;12.00;99.90;;;;;;5067163;28;20032;-52
2023/03/29 10:43:18;;;;;;;9.90;7.05;;;12.00;99.90;;;;;;5061576;28;20758;-55
2023/03/29 10:45:48;;;;;;;8.65;6.57;;;12.10;99.90;;;;;;5063765;28;20040;-50
2023/03/29 10:48:16;;;;;;;7.78;6.45;;;12.10;99.90;;;;;;5065321;28;20048;-54
2023/03/29 10:50:47;;;;;;;9.55;6.93;;;12.10;99.90;;;;;;5066900;28;20057;-52
2023/03/29 10:53:31;;;;;;;7.95;6.88;;;12.20;99.90;;;;;;5063746;28;20033;-51
2023/03/29 10:56:12;;;;;;;9.15;7.38;;;12.10;99.90;;;;;;5062787;28;20056;-49
2023/03/29 10:58:48;;;;;;;8.63;7.05;;;12.30;99.90;;;;;;5067572;28;20176;-52
2023/03/29 11:01:44;;;;;;;8.90;6.72;;;12.40;99.90;;;;;;5066788;28;20048;-50
2023/03/29 11:04:41;;;;;;;11.27;6.40;;;12.50;99.90;;;;;;5052518;28;20048;-54
2023/03/29 11:07:31;;;;;;;9.20;6.50;;;12.50;99.90;;;;;;5069136;28;20120;-51
2023/03/29 11:10:15;;;;;;;7.22;6.53;;;12.70;99.90;;;;;;5065930;28;20563;-50
2023/03/29 11:13:12;;;;;;;12.18;6.85;;;12.80;99.90;;;;;;5068137;28;20064;-50
2023/03/29 11:15:55;;;;;;;9.93;6.63;;;13.00;99.90;;;;;;5064843;28;20071;-51
2023/03/29 11:18:29;;;;;;;9.43;6.72;;;13.20;99.90;;;;;;5066761;28;20110;-50
2023/03/29 11:21:19;;;;;;;7.32;6.57;;;13.30;99.90;;;;;;5065496;28;20123;-54
2023/03/29 11:24:03;;;;;;;12.82;8.27;;;13.30;99.90;;;;;;5064310;28;20497;-52
2023/03/29 11:26:37;;;;;;;8.93;6.82;;;13.50;99.90;;;;;;5069766;28;20082;-50
2023/03/29 11:29:18;;;;;;;8.73;6.72;;;13.50;99.90;;;;;;5068022;28;20044;-51
2023/03/29 11:32:18;;;;;;;8.23;6.72;;;13.50;99.90;;;;;;5066440;28;20591;-51
2023/03/29 11:35:22;;;;;;;11.45;6.60;;;13.80;99.90;;;;;;5066051;28;20040;-50
2023/03/29 11:38:12;;;;;;;7.13;6.15;;;13.80;99.90;;;;;;5064141;28;20056;-53
2023/03/29 11:40:49;;;;;;;8.23;6.60;;;13.90;99.90;;;;;;5067869;28;20041;-52
2023/03/29 11:43:40;;;;;;;12.20;7.28;;;14.00;99.90;;;;;;5067395;28;20460;-50
2023/03/29 11:46:33;;;;;;;9.50;7.10;;;14.00;99.90;;;;;;5067979;28;20836;-50
2023/03/29 11:49:22;;;;;;;8.70;6.82;;;13.80;99.90;;;;;;5065026;28;20044;-50
2023/03/29 11:52:13;;;;;;;10.00;6.55;;;14.00;99.90;;;;;;5064280;28;20040;-50
2023/03/29 11:55:24;;;;;;;9.65;6.70;;;14.10;99.90;;;;;;5059413;28;20465;-50
2023/03/29 11:58:01;;;;;;;9.13;6.45;;;14.30;99.90;;;;;;5004494;28;20050;-51
2023/03/29 12:00:31;;;;;;;10.60;6.68;;;14.50;99.90;;;;;;5003441;28;20558;-51
2023/03/29 12:03:33;;;;;;;7.00;6.28;;;14.50;99.90;;;;;;5004823;28;20042;-54
2023/03/29 12:06:10;;;;;;;8.68;6.80;;;14.30;99.90;;;;;;4938833;28;20103;-50
2023/03/29 12:09:11;;;;;;;9.13;7.07;;;14.60;99.90;;;;;;4946374;28;20179;-50
2023/03/29 12:11:44;;;;;;;10.57;6.63;;;;;;;;;;4933421;29;20051;-50
2023/03/29 12:14:10;;;;;;;10.23;7.32;;;14.80;99.90;;;;;;4832104;22;20232;-52
2023/03/29 12:16:39;;;;;;;8.68;6.35;;;15.10;99.90;;;;;;5079366;28;20040;-50
2023/03/29 12:19:21;;;;;;;10.27;6.90;;;15.00;99.90;;;;;;5084216;28;20500;-53
2023/03/29 12:21:47;;;;;;;8.68;7.20;;;15.00;99.90;;;;;;5086311;28;20538;-54
2023/03/29 12:24:16;;;;;;;9.90;7.20;;;15.10;99.90;;;;;;5080150;28;20249;-50
2023/03/29 12:27:10;;;;;;;8.10;7.30;;;14.90;99.90;;;;;;5083770;28;20084;-50
2023/03/29 12:29:36;;;;;;;9.27;6.90;;;15.10;99.90;;;;;;5086817;28;20728;-50
2023/03/29 12:32:20;;;;;;;12.27;7.55;;;15.20;99.90;;;;;;5082596;28;20040;-50
2023/03/29 12:35:06;;;;;;;9.85;7.30;;;15.70;99.90;;;;;;5084676;28;20040;-49
2023/03/29 12:37:37;;;;;;;8.35;6.78;;;15.30;99.90;;;;;;5085745;28;20115;-50
2023/03/29 12:40:15;;;;;;;10.20;6.93;;;15.00;99.90;;;;;;5088823;28;20055;-50
2023/03/29 12:42:52;;;;;;;9.68;6.82;;;14.90;99.90;;;;;;5089296;28;20138;-50
2023/03/29 12:45:30;;;;;;;14.05;7.40;;;14.80;99.90;;;;;;5088230;28;20462;-49
2023/03/29 12:47:56;;;;;;;11.57;7.93;;;14.70;99.90;;;;;;5090409;28;20104;-50
2023/03/29 12:50:34;;;;;;;9.27;7.68;;;14.80;99.90;;;;;;5089390;28;20087;-50
2023/03/29 12:53:17;;;;;;;8.65;7.00;;;14.70;99.90;;;;;;5088525;28;20036;-50
2023/03/29 12:55:43;;;;;;;7.85;6.97;;;14.60;99.90;;;;;;5085917;28;20036;-50
2023/03/29 12:58:23;;;;;;;8.52;6.80;;;14.60;99.90;;;;;;5084245;28;20062;-50
2023/03/29 13:01:03;;;;;;;11.85;7.63;;;14.40;99.90;;;;;;5090572;28;20126;-50
2023/03/29 13:03:38;;;;;;;14.98;7.93;;;14.50;99.90;;;;;;5084982;28;20048;-53
2023/03/29 13:06:08;;;;;;;10.27;7.55;;;14.40;99.90;;;;;;5084053;28;20106;-50
2023/03/29 13:08:35;;;;;;;7.95;7.20;;;14.40;99.90;;;;;;5066676;28;20409;-53
2023/03/29 13:11:01;;;;;;;10.60;7.93;;;14.10;99.90;;;;;;5080967;28;20040;-51